Time;durP1;ratioP1;P1;durP2;ratioP2;P2;SDS_P1;SDS_P2;PMS_P1;PMS_P2;Temp;Humidity;BMP_temperature;BMP_pressure;BME280_temperature;BME280_humidity;BME280_pressure;Samples;Min_cycle;Max_cycle;Signal;HPM_P1;HPM_P2
2022/05/30 00:00:24;;;;;;;6.20;5.60;;;;;;;20.46;64.69;100465.00;5066381;28;20412;-62
2022/05/30 00:02:52;;;;;;;7.05;6.35;;;;;;;20.48;64.49;100465.56;5059048;28;20419;-63
2022/05/30 00:05:23;;;;;;;7.82;6.45;;;;;;;20.46;64.79;100471.19;5078132;28;20410;-62
2022/05/30 00:07:50;;;;;;;8.98;6.65;;;;;;;20.52;64.46;100467.53;5074630;28;20414;-62
2022/05/30 00:10:19;;;;;;;7.18;6.45;;;;;;;20.50;64.70;100475.03;5079096;28;20419;-64
2022/05/30 00:12:47;;;;;;;6.97;6.38;;;;;;;20.53;64.51;100477.25;5063340;28;20423;-62
2022/05/30 00:15:16;;;;;;;7.40;6.70;;;;;;;20.48;64.69;100481.72;5066664;28;20954;-65
2022/05/30 00:17:43;;;;;;;7.85;6.45;;;;;;;20.46;64.80;100473.09;5049159;28;20434;-65
2022/05/30 00:20:11;;;;;;;7.30;6.43;;;;;;;20.48;64.62;100470.97;5058749;28;20428;-64
2022/05/30 00:22:40;;;;;;;8.35;7.53;;;;;;;20.43;64.95;100479.75;5049902;28;20415;-64
2022/05/30 00:25:08;;;;;;;12.73;10.35;;;;;;;20.47;64.74;100472.00;5039691;28;20790;-62
2022/05/30 00:27:35;;;;;;;13.73;11.75;;;;;;;20.54;64.35;100470.78;5050639;28;20421;-62
2022/05/30 00:30:02;;;;;;;12.85;11.55;;;;;;;20.46;64.42;100471.19;5050924;28;20424;-62
2022/05/30 00:32:29;;;;;;;12.15;10.88;;;;;;;20.44;64.63;100468.75;5054042;28;20779;-62
2022/05/30 00:34:56;;;;;;;10.65;9.55;;;;;;;20.42;64.66;100452.00;5047790;28;20429;-63
2022/05/30 00:37:25;;;;;;;8.93;7.93;;;;;;;20.39;64.65;100457.88;5051245;28;20475;-62
2022/05/30 00:39:54;;;;;;;9.00;6.15;;;;;;;20.43;64.43;100456.31;5051030;28;20432;-62
2022/05/30 00:42:26;;;;;;;6.13;5.50;;;;;;;20.42;64.49;100468.16;5050752;28;20455;-64
2022/05/30 00:44:54;;;;;;;6.10;5.50;;;;;;;20.41;64.52;100463.84;5050765;28;20944;-65
2022/05/30 00:47:25;;;;;;;5.78;5.25;;;;;;;20.50;64.31;100463.44;5051944;28;20420;-65
2022/05/30 00:49:52;;;;;;;7.00;5.30;;;;;;;20.49;64.13;100459.94;5042718;28;20500;-65
2022/05/30 00:52:23;;;;;;;5.72;5.13;;;;;;;20.48;64.28;100457.50;5050411;28;20441;-65
2022/05/30 00:54:55;;;;;;;5.38;4.78;;;;;;;20.49;64.21;100459.13;5037450;28;20467;-65
2022/05/30 00:57:25;;;;;;;5.38;4.50;;;;;;;20.49;64.32;100457.25;5056160;28;20411;-62
2022/05/30 00:59:54;;;;;;;6.28;4.70;;;;;;;20.49;63.87;100461.81;5038654;28;20426;-62
2022/05/30 01:02:23;;;;;;;5.30;4.80;;;;;;;20.42;64.01;100459.28;5057033;28;20503;-62
2022/05/30 01:07:36;;;;;;;5.55;4.68;;;;;;;20.42;64.04;100456.59;5056174;28;20917;-64
2022/05/30 01:10:11;;;;;;;4.85;4.45;;;;;;;20.37;64.00;100454.63;5036279;28;20794;-65
2022/05/30 01:12:41;;;;;;;5.85;4.30;;;;;;;20.38;64.01;100448.19;5050430;28;20419;-65
2022/05/30 01:15:11;;;;;;;5.22;4.65;;;;;;;20.40;63.98;100453.28;5046388;28;20790;-62
2022/05/30 01:17:49;;;;;;;5.15;4.60;;;;;;;20.37;63.91;100462.69;5051068;28;20413;-62
2022/05/30 01:20:26;;;;;;;5.50;4.60;;;;;;;20.41;63.93;100463.03;5051114;28;20434;-65
2022/05/30 01:23:24;;;;;;;5.40;4.90;;;;;;;20.43;63.84;100469.78;5049722;28;20431;-64
2022/05/30 01:26:23;;;;;;;8.70;6.00;;;;;;;20.42;63.79;100467.38;5035206;28;20417;-65
2022/05/30 01:28:55;;;;;;;8.80;6.80;;;;;;;20.46;63.87;100470.38;5035723;28;20416;-64
2022/05/30 01:31:24;;;;;;;8.57;7.27;;;;;;;20.50;63.86;100464.25;5067014;28;20424;-64
2022/05/30 01:33:51;;;;;;;7.72;6.70;;;;;;;20.54;63.98;100465.41;5051207;28;20419;-62
2022/05/30 01:36:22;;;;;;;6.38;5.78;;;;;;;20.54;64.09;100465.41;5050641;28;20416;-62
2022/05/30 01:38:49;;;;;;;5.32;4.82;;;;;;;20.53;64.05;100466.47;5049966;28;20428;-62
2022/05/30 01:41:16;;;;;;;5.03;4.57;;;;;;;20.47;64.38;100467.44;5058360;28;20415;-64
2022/05/30 01:43:43;;;;;;;4.97;4.30;;;;;;;20.49;64.28;100468.03;5056121;28;20419;-64
2022/05/30 01:46:14;;;;;;;4.93;4.30;;;;;;;20.55;64.00;100477.81;5041695;28;20446;-65
2022/05/30 01:48:41;;;;;;;4.63;4.10;;;;;;;20.61;63.99;100470.69;5045323;28;20409;-64
2022/05/30 01:53:24;;;;;;;4.53;4.13;;;;;;;20.60;63.84;100472.53;5102868;27;20406;-65
2022/05/30 01:55:50;;;;;;;5.43;4.13;;;;;;;20.59;63.99;100478.97;5086450;28;20422;-62
2022/05/30 01:58:17;;;;;;;7.20;4.40;;;;;;;20.60;63.86;100480.59;5086395;28;20413;-64
2022/05/30 02:00:44;;;;;;;5.32;4.30;;;;;;;20.49;64.21;100486.03;5086492;28;20414;-62
2022/05/30 02:03:11;;;;;;;7.45;4.60;;;;;;;20.57;63.91;100480.28;5078077;28;20427;-65
2022/05/30 02:05:38;;;;;;;4.60;4.20;;;;;;;20.64;63.53;100482.84;5081344;28;20410;-65
2022/05/30 02:08:05;;;;;;;5.18;4.25;;;;;;;20.62;63.81;100491.97;5086422;28;20479;-65
2022/05/30 02:10:34;;;;;;;4.65;4.25;;;;;;;20.59;63.63;100495.13;5086459;28;20418;-63
2022/05/30 02:13:02;;;;;;;6.40;4.00;;;;;;;20.54;63.69;100491.53;5086422;28;20422;-65
2022/05/30 02:15:29;;;;;;;5.80;4.50;;;;;;;20.57;63.44;100502.63;5086248;28;20448;-64
2022/05/30 02:17:55;;;;;;;5.72;3.95;;;;;;;20.56;63.37;100508.25;5085985;28;20445;-65
2022/05/30 02:20:22;;;;;;;5.22;4.07;;;;;;;20.53;63.36;100512.25;5086590;28;20489;-64
2022/05/30 02:22:49;;;;;;;4.35;3.95;;;;;;;20.49;63.48;100515.66;5083293;28;20415;-64
2022/05/30 02:25:16;;;;;;;4.40;4.00;;;;;;;20.46;63.82;100516.97;5066040;28;20423;-64
2022/05/30 02:27:44;;;;;;;4.47;3.70;;;;;;;20.48;63.45;100512.16;5083102;28;20410;-64
2022/05/30 02:30:12;;;;;;;4.80;3.50;;;;;;;20.36;63.72;100516.75;5085438;28;20422;-64
2022/05/30 02:36:44;;;;;;;4.60;3.70;;;;;;;19.98;64.87;100513.59;5100861;28;20414;-64
2022/05/30 02:40:56;;;;;;;4.32;3.80;;;;;;;20.10;64.59;100521.66;5078768;28;20412;-63
2022/05/30 02:43:23;;;;;;;4.87;3.70;;;;;;;20.15;64.75;100529.00;5064075;28;20932;-63
2022/05/30 02:45:49;;;;;;;4.28;3.88;;;;;;;20.28;64.43;100527.94;5060979;28;20420;-63
2022/05/30 02:48:16;;;;;;;6.03;4.55;;;;;;;20.21;64.66;100523.47;5058205;28;20490;-63
2022/05/30 02:50:44;;;;;;;5.13;4.10;;;;;;;20.28;64.43;100519.84;5066263;28;20428;-62
2022/05/30 02:53:11;;;;;;;4.78;4.30;;;;;;;20.34;64.37;100524.28;5056187;28;20425;-62
2022/05/30 02:55:38;;;;;;;4.68;3.97;;;;;;;20.30;64.10;100523.94;5074366;28;20418;-63
2022/05/30 02:58:07;;;;;;;4.50;3.97;;;;;;;20.28;64.55;100523.34;5061323;28;20409;-63
2022/05/30 03:00:34;;;;;;;4.57;3.90;;;;;;;20.39;64.17;100529.75;5070481;28;20520;-62
2022/05/30 03:03:01;;;;;;;4.47;3.70;;;;;;;20.37;64.08;100521.91;5066287;28;20412;-62
2022/05/30 03:05:30;;;;;;;5.18;3.97;;;;;;;20.37;64.09;100532.69;5076981;28;20796;-63
2022/05/30 03:07:59;;;;;;;4.03;3.70;;;;;;;20.37;64.03;100532.69;5066126;28;20469;-63
2022/05/30 03:10:26;;;;;;;5.30;3.40;;;;;;;20.41;63.53;100531.13;5059608;28;20411;-63
2022/05/30 03:12:53;;;;;;;4.78;3.72;;;;;;;20.42;63.48;100534.66;5067163;28;20412;-63
2022/05/30 03:15:21;;;;;;;3.87;3.30;;;;;;;20.39;63.20;100533.25;5062981;28;20811;-63
2022/05/30 03:17:51;;;;;;;4.28;2.90;;;;;;;20.32;63.04;100540.66;5062422;28;20928;-63
2022/05/30 03:20:18;;;;;;;3.25;2.80;;;;;;;20.29;62.96;100541.13;5056708;28;20433;-63
2022/05/30 03:22:45;;;;;;;3.20;2.90;;;;;;;20.05;63.19;100543.06;5061817;28;20499;-63
2022/05/30 03:25:12;;;;;;;2.88;2.50;;;;;;;20.00;62.94;100543.75;5057953;28;20791;-63
2022/05/30 03:27:39;;;;;;;3.75;2.70;;;;;;;20.11;62.68;100552.06;5055684;28;20418;-62
2022/05/30 03:30:07;;;;;;;4.10;2.83;;;;;;;20.05;62.49;100545.75;5077516;28;20426;-62
2022/05/30 03:32:35;;;;;;;3.05;2.78;;;;;;;20.19;61.95;100549.00;5073975;28;20420;-63
2022/05/30 03:35:04;;;;;;;7.25;3.00;;;;;;;20.27;61.59;100548.63;5065577;28;20853;-62
2022/05/30 03:37:31;;;;;;;3.90;3.35;;;;;;;20.23;61.57;100556.34;5058080;28;20516;-63
2022/05/30 03:39:58;;;;;;;3.13;2.83;;;;;;;20.23;61.29;100558.25;5059298;28;20523;-63
2022/05/30 03:42:25;;;;;;;3.97;2.73;;;;;;;20.23;61.36;100558.25;5066120;28;20419;-63
2022/05/30 03:44:52;;;;;;;3.70;3.10;;;;;;;20.30;61.26;100560.81;5066906;28;20813;-63
2022/05/30 03:47:19;;;;;;;3.53;2.90;;;;;;;20.31;60.94;100560.56;5065571;28;20419;-64
2022/05/30 03:49:47;;;;;;;3.15;2.85;;;;;;;20.17;61.43;100559.19;5065580;28;20418;-63
2022/05/30 03:52:14;;;;;;;3.13;2.83;;;;;;;20.24;61.29;100562.59;5052145;28;20416;-63
2022/05/30 03:54:41;;;;;;;6.10;4.75;;;;;;;20.24;61.13;100565.28;5051176;28;20416;-63
2022/05/30 03:57:08;;;;;;;4.68;3.50;;;;;;;20.18;61.68;100571.59;5049469;28;20795;-63
2022/05/30 03:59:35;;;;;;;6.25;4.75;;;;;;;20.28;61.45;100576.38;5049957;28;20443;-63
2022/05/30 04:02:02;;;;;;;4.72;3.97;;;;;;;20.30;61.50;100575.06;5050487;28;20420;-63
2022/05/30 04:04:29;;;;;;;4.17;3.60;;;;;;;20.39;61.34;100581.72;5050807;28;20499;-63
2022/05/30 04:06:57;;;;;;;4.32;3.90;;;;;;;20.49;60.88;100581.13;5054547;28;20416;-63
2022/05/30 04:09:24;;;;;;;6.20;4.70;;;;;;;20.53;60.85;100587.66;5051413;28;20411;-63
2022/05/30 04:11:51;;;;;;;4.10;3.70;;;;;;;20.36;61.13;100594.84;5050026;28;20427;-63
2022/05/30 04:14:18;;;;;;;6.05;3.90;;;;;;;20.40;61.19;100591.44;5045317;28;20409;-63
2022/05/30 04:16:45;;;;;;;4.65;3.70;;;;;;;20.36;61.29;100598.34;5041266;28;20422;-63
2022/05/30 04:19:12;;;;;;;5.50;4.07;;;;;;;20.47;61.05;100601.25;5055893;28;20942;-62
2022/05/30 04:21:39;;;;;;;5.40;4.03;;;;;;;20.71;60.22;100599.34;5050265;28;20825;-62
2022/05/30 04:24:08;;;;;;;5.90;4.47;;;;;;;20.81;60.22;100599.53;5051741;28;20463;-62
2022/05/30 04:26:37;;;;;;;6.50;4.82;;;;;;;20.78;60.23;100608.91;5056038;28;20415;-62
2022/05/30 04:29:05;;;;;;;7.82;5.65;;;;;;;20.71;60.25;100605.53;5043469;28;20881;-63
2022/05/30 04:31:32;;;;;;;8.48;6.50;;;;;;;20.87;60.07;100603.97;5034784;28;20416;-63
2022/05/30 04:33:58;;;;;;;9.65;5.93;;;;;;;20.84;60.00;100609.00;5032560;28;20422;-63
2022/05/30 04:36:25;;;;;;;8.52;6.85;;;;;;;20.75;60.31;100605.88;5042834;28;20413;-64
2022/05/30 04:38:52;;;;;;;9.40;6.07;;;;;;;20.78;60.43;100617.00;5035358;28;20424;-63
2022/05/30 04:41:21;;;;;;;9.80;7.63;;;;;;;20.82;60.40;100620.03;5031271;28;20434;-63
2022/05/30 04:43:47;;;;;;;9.85;7.53;;;;;;;20.98;60.15;100626.53;5046414;28;20412;-63
2022/05/30 04:46:16;;;;;;;9.95;8.40;;;;;;;21.04;59.71;100628.25;5037702;28;20424;-63
2022/05/30 04:48:44;;;;;;;12.05;7.10;;;;;;;21.07;59.85;100630.47;5032638;28;20422;-63
2022/05/30 04:51:12;;;;;;;11.85;9.10;;;;;;;21.11;59.75;100630.78;5035880;28;20503;-59
2022/05/30 04:53:40;;;;;;;8.73;7.60;;;;;;;21.15;59.78;100629.25;5034091;28;20414;-59
2022/05/30 04:56:07;;;;;;;8.95;7.40;;;;;;;21.12;59.96;100632.41;5034872;28;20409;-60
2022/05/30 04:58:36;;;;;;;7.87;6.60;;;;;;;21.07;60.17;100638.53;5045319;28;20425;-59
2022/05/30 05:01:05;;;;;;;10.18;7.32;;;;;;;21.13;60.38;100636.75;5039775;28;20953;-59
2022/05/30 05:03:34;;;;;;;9.10;6.60;;;;;;;21.03;60.64;100648.19;5038864;28;20432;-59
2022/05/30 05:06:02;;;;;;;10.68;7.03;;;;;;;21.08;60.71;100653.63;5039211;28;20478;-59
2022/05/30 05:08:37;;;;;;;9.73;6.30;;;;;;;21.20;60.29;100661.69;5045567;28;20468;-59
2022/05/30 05:11:16;;;;;;;8.18;6.38;;;;;;;21.07;60.44;100656.56;5045296;28;20798;-59
2022/05/30 05:13:45;;;;;;;8.05;6.15;;;;;;;21.16;60.02;100661.34;5030111;28;20448;-59
2022/05/30 05:16:12;;;;;;;12.03;6.50;;;;;;;21.17;59.98;100657.59;5040524;28;20578;-59
2022/05/30 05:18:39;;;;;;;10.73;6.80;;;;;;;21.19;60.21;100660.03;5036650;28;20501;-59
2022/05/30 05:21:07;;;;;;;6.50;5.82;;;;;;;21.10;60.32;100667.69;5030879;28;20430;-59
2022/05/30 05:23:34;;;;;;;8.25;5.95;;;;;;;21.09;60.15;100668.78;5031420;28;20406;-59
2022/05/30 05:26:07;;;;;;;8.45;5.88;;;;;;;21.06;59.71;100671.94;5031816;28;20870;-59
2022/05/30 05:28:35;;;;;;;8.52;5.85;;;;;;;21.19;59.11;100671.66;5034426;28;20412;-59
2022/05/30 05:31:03;;;;;;;7.50;5.90;;;;;;;21.12;59.10;100670.16;5037028;28;20408;-59
2022/05/30 05:33:30;;;;;;;6.72;5.75;;;;;;;21.11;59.22;100676.63;5036921;28;20907;-59
2022/05/30 05:35:57;;;;;;;9.68;5.90;;;;;;;21.18;59.44;100678.09;5036008;28;20411;-59
2022/05/30 05:38:24;;;;;;;10.30;6.15;;;;;;;21.25;59.02;100682.50;5034830;28;20410;-59
2022/05/30 05:40:52;;;;;;;9.63;6.38;;;;;;;21.36;58.62;100681.66;5030174;28;20438;-59
2022/05/30 05:43:19;;;;;;;7.30;6.10;;;;;;;21.47;58.69;100682.69;5042470;28;20416;-59
2022/05/30 05:45:47;;;;;;;7.32;5.90;;;;;;;21.47;59.05;100680.00;5041795;28;20412;-59
2022/05/30 05:48:16;;;;;;;6.70;5.63;;;;;;;21.48;59.20;100682.44;5039620;28;20421;-59
2022/05/30 05:50:44;;;;;;;7.22;5.70;;;;;;;21.36;59.04;100681.66;5038069;28;20415;-59
2022/05/30 05:53:12;;;;;;;6.80;5.70;;;;;;;21.42;59.48;100685.25;5043372;28;20953;-59
2022/05/30 05:55:39;;;;;;;6.80;5.50;;;;;;;21.48;59.22;100693.22;5037961;28;21007;-59
2022/05/30 05:58:06;;;;;;;6.82;5.90;;;;;;;21.38;58.97;100690.31;5035999;28;20421;-59
2022/05/30 06:00:33;;;;;;;8.38;5.57;;;;;;;21.51;58.67;100702.72;5035494;28;20430;-58
2022/05/30 06:03:00;;;;;;;10.68;6.70;;;;;;;21.64;58.73;100697.00;5042442;28;20509;-59
2022/05/30 06:05:30;;;;;;;6.25;5.65;;;;;;;21.68;58.00;100700.00;5039480;28;20420;-59
2022/05/30 06:08:00;;;;;;;7.60;6.05;;;;;;;21.82;58.47;100700.53;5040161;28;20416;-59
2022/05/30 06:10:27;;;;;;;6.80;5.68;;;;;;;21.92;57.39;100698.00;5038965;28;20417;-59
2022/05/30 06:12:54;;;;;;;8.20;6.28;;;;;;;22.04;57.44;100703.28;5040255;28;20415;-59
2022/05/30 06:15:21;;;;;;;7.57;5.90;;;;;;;22.04;57.47;100706.81;5036017;28;20418;-59
2022/05/30 06:17:48;;;;;;;8.63;6.57;;;;;;;22.18;57.70;100704.59;5037312;28;20418;-59
2022/05/30 06:20:17;;;;;;;7.05;5.60;;;;;;;22.23;55.90;100707.38;5030414;28;20958;-59
2022/05/30 06:22:46;;;;;;;7.10;6.40;;;;;;;22.52;55.97;100702.66;5038809;28;20418;-58
2022/05/30 06:25:13;;;;;;;7.75;5.53;;;;;;;22.60;54.87;100712.25;5030115;28;20406;-59
2022/05/30 06:27:40;;;;;;;11.52;6.38;;;;;;;22.79;54.70;100707.31;5032550;28;20418;-59
2022/05/30 06:30:08;;;;;;;7.68;5.35;;;;;;;22.97;54.21;100713.50;5030725;28;20414;-59
2022/05/30 06:32:35;;;;;;;9.23;5.28;;;;;;;23.02;54.20;100714.38;5037246;28;20798;-59
2022/05/30 06:35:01;;;;;;;7.82;5.15;;;;;;;23.15;53.36;100724.00;5042900;28;20412;-59
2022/05/30 06:37:28;;;;;;;6.22;4.63;;;;;;;23.22;53.05;100730.03;5048061;28;20423;-59
2022/05/30 06:39:57;;;;;;;7.40;5.28;;;;;;;23.25;52.68;100731.41;5048078;28;20431;-59
2022/05/30 06:42:24;;;;;;;9.82;5.18;;;;;;;23.57;51.89;100728.78;5040405;28;20422;-59
2022/05/30 06:44:51;;;;;;;10.15;5.70;;;;;;;23.77;52.03;100730.00;5036560;28;20411;-59
2022/05/30 06:47:18;;;;;;;9.48;5.38;;;;;;;23.95;50.88;100726.13;5041662;28;20410;-59
2022/05/30 06:49:46;;;;;;;13.35;5.07;;;;;;;24.19;50.88;100729.28;5036367;28;20414;-59
2022/05/30 06:52:13;;;;;;;9.90;5.63;;;;;;;25.08;48.97;100715.91;5038157;28;20442;-59
2022/05/30 06:54:40;;;;;;;8.07;4.70;;;;;;;25.84;46.82;100717.13;5039184;28;20934;-60
2022/05/30 06:59:53;;;;;;;6.28;4.90;;;;;;;26.59;44.64;100711.03;5032320;28;21073;-60
2022/05/30 07:02:20;;;;;;;6.95;5.40;;;;;;;25.93;45.45;100708.19;5039811;28;20423;-60
2022/05/30 07:04:47;;;;;;;6.40;5.50;;;;;;;25.92;46.03;100714.66;5041183;28;20416;-60
2022/05/30 07:07:14;;;;;;;8.82;5.80;;;;;;;25.82;46.83;100717.41;5042289;28;20423;-59
2022/05/30 07:09:42;;;;;;;6.15;5.55;;;;;;;25.84;46.20;100711.69;5040069;28;20412;-59
2022/05/30 07:12:11;;;;;;;6.78;5.50;;;;;;;25.79;46.28;100707.09;5046833;28;20417;-59
2022/05/30 07:14:38;;;;;;;6.82;5.65;;;;;;;25.61;46.57;100713.06;5047993;28;20423;-59
2022/05/30 07:17:07;;;;;;;7.43;5.65;;;;;;;25.42;47.40;100713.56;5044950;28;20416;-59
2022/05/30 07:19:34;;;;;;;6.00;5.35;;;;;;;25.26;47.50;100704.59;5037487;28;20443;-59
2022/05/30 07:22:02;;;;;;;9.30;5.70;;;;;;;25.34;47.35;100705.97;5038670;28;20436;-59
2022/05/30 07:24:29;;;;;;;8.07;5.53;;;;;;;24.74;47.19;100711.75;5036846;28;20419;-59
2022/05/30 07:26:55;;;;;;;5.50;4.93;;;;;;;25.02;47.13;100715.09;5036670;28;20416;-59
2022/05/30 07:29:26;;;;;;;5.40;4.43;;;;;;;25.07;46.72;100715.09;5042474;28;20497;-59
2022/05/30 07:31:58;;;;;;;5.72;5.15;;;;;;;25.00;47.00;100703.69;5049195;28;20914;-59
2022/05/30 07:34:26;;;;;;;9.73;4.73;;;;;;;24.91;47.29;100708.81;5052425;28;20482;-59
2022/05/30 07:36:53;;;;;;;7.40;4.90;;;;;;;25.02;47.50;100711.56;5052412;28;20420;-59
2022/05/30 07:39:21;;;;;;;7.28;4.50;;;;;;;24.68;46.85;100707.38;5052023;28;20423;-59
2022/05/30 07:41:48;;;;;;;6.72;4.50;;;;;;;24.37;47.78;100719.91;5051322;28;20519;-59
2022/05/30 07:44:15;;;;;;;6.10;4.60;;;;;;;24.74;47.46;100716.31;5038764;28;20487;-59
2022/05/30 07:46:44;;;;;;;6.88;5.00;;;;;;;24.84;47.53;100716.38;5038519;28;20421;-60
2022/05/30 07:49:12;;;;;;;7.72;4.50;;;;;;;24.80;46.79;100718.00;5051526;28;20455;-59
2022/05/30 07:51:40;;;;;;;7.72;5.30;;;;;;;24.72;47.37;100716.63;5051888;28;20802;-59
2022/05/30 07:54:13;;;;;;;7.00;5.00;;;;;;;24.51;48.06;100717.56;5033863;28;20446;-59
2022/05/30 07:56:40;;;;;;;6.63;4.87;;;;;;;24.53;48.22;100724.38;5042766;28;20492;-59
2022/05/30 07:59:07;;;;;;;6.72;5.10;;;;;;;24.17;47.99;100726.03;5051726;28;20413;-59
2022/05/30 08:01:34;;;;;;;7.25;5.40;;;;;;;24.16;48.68;100725.19;5051972;28;20471;-59
2022/05/30 08:04:03;;;;;;;6.63;5.25;;;;;;;24.50;48.48;100724.06;5050708;28;20416;-59
2022/05/30 08:06:31;;;;;;;7.00;6.17;;;;;;;24.17;48.61;100721.41;5035784;28;20413;-59
2022/05/30 08:08:58;;;;;;;7.88;5.70;;;;;;;24.68;48.47;100731.75;5034465;28;20414;-59
2022/05/30 08:11:26;;;;;;;6.70;4.97;;;;;;;24.79;47.79;100724.50;5050586;28;20419;-59
2022/05/30 08:13:53;;;;;;;8.15;4.38;;;;;;;24.97;46.73;100723.19;5040354;28;20414;-59
2022/05/30 08:16:22;;;;;;;8.30;4.50;;;;;;;24.97;46.51;100726.75;5048865;28;20443;-59
2022/05/30 08:18:49;;;;;;;10.23;4.23;;;;;;;24.84;46.94;100721.00;5041290;28;20420;-60
2022/05/30 08:21:18;;;;;;;6.32;4.50;;;;;;;25.06;46.63;100723.50;5047053;28;20430;-59
2022/05/30 08:23:46;;;;;;;7.30;4.05;;;;;;;25.32;46.51;100719.00;5042959;28;20426;-59
2022/05/30 08:26:14;;;;;;;9.02;4.50;;;;;;;25.47;45.87;100724.44;5035049;28;20792;-59
2022/05/30 08:28:41;;;;;;;6.07;3.90;;;;;;;25.58;44.40;100716.31;5045380;28;20414;-59
2022/05/30 08:31:08;;;;;;;4.70;3.90;;;;;;;25.66;43.63;100713.88;5031650;28;20426;-59
2022/05/30 08:33:35;;;;;;;6.53;4.40;;;;;;;25.49;44.29;100716.03;5048257;28;20412;-59
2022/05/30 08:36:05;;;;;;;6.43;4.25;;;;;;;25.28;45.00;100716.00;5042032;28;21006;-59
2022/05/30 08:38:36;;;;;;;5.22;4.30;;;;;;;25.60;45.30;100723.09;5030627;28;20416;-59
2022/05/30 08:43:51;;;;;;;5.63;3.88;;;;;;;25.35;44.33;100713.00;5044931;28;20409;-59
2022/05/30 08:46:31;;;;;;;9.30;4.40;;;;;;;25.53;45.22;100727.97;5031043;28;20808;-59
2022/05/30 08:49:10;;;;;;;8.13;4.18;;;;;;;25.65;45.06;100731.25;5048474;28;20415;-59
2022/05/30 08:52:05;;;;;;;5.00;3.85;;;;;;;25.70;44.04;100728.53;5051023;28;20420;-59
2022/05/30 08:54:43;;;;;;;8.90;4.20;;;;;;;25.60;45.24;100738.56;5043666;28;20414;-59
2022/05/30 08:57:17;;;;;;;5.00;4.10;;;;;;;25.72;44.52;100736.41;5031498;28;20421;-59
2022/05/30 09:00:04;;;;;;;6.95;4.03;;;;;;;25.73;44.68;100743.44;5050925;28;20428;-59
2022/05/30 09:02:39;;;;;;;6.43;4.22;;;;;;;25.54;45.35;100743.19;5050867;28;20428;-59
2022/05/30 09:05:11;;;;;;;10.38;4.72;;;;;;;25.75;44.70;100747.53;5040618;28;20414;-59
2022/05/30 09:07:43;;;;;;;8.52;4.78;;;;;;;25.96;44.74;100739.41;5033462;28;20416;-59
2022/05/30 09:10:18;;;;;;;6.18;3.85;;;;;;;25.98;44.54;100741.88;5050491;28;20444;-59
2022/05/30 09:12:49;;;;;;;4.43;3.70;;;;;;;26.18;43.66;100733.72;5032816;28;20407;-59
2022/05/30 09:15:20;;;;;;;5.43;3.70;;;;;;;26.29;42.90;100729.06;5040134;28;20444;-60
2022/05/30 09:17:53;;;;;;;3.90;3.42;;;;;;;26.48;41.65;100729.28;5047751;28;20419;-59
2022/05/30 09:20:22;;;;;;;7.18;3.70;;;;;;;26.60;41.04;100718.91;5030864;28;20420;-59
2022/05/30 09:22:50;;;;;;;5.53;3.90;;;;;;;26.69;41.50;100728.16;5029125;28;20434;-59
2022/05/30 09:28:06;;;;;;;5.68;3.40;;;;;;;26.73;41.91;100725.69;5042835;28;20922;-59
2022/05/30 09:30:42;;;;;;;9.00;3.60;;;;;;;26.83;42.23;100724.81;5035000;28;20421;-59
2022/05/30 09:33:22;;;;;;;6.47;4.50;;;;;;;26.93;41.60;100730.22;5049283;28;20413;-59
2022/05/30 09:35:49;;;;;;;7.00;3.90;;;;;;;26.94;42.23;100728.31;5049559;28;20431;-59
2022/05/30 09:38:19;;;;;;;5.28;3.80;;;;;;;27.02;41.35;100720.38;5049946;28;21012;-59
2022/05/30 09:40:51;;;;;;;5.95;3.75;;;;;;;27.14;40.80;100722.78;5036353;28;20459;-60
2022/05/30 09:43:25;;;;;;;7.50;3.80;;;;;;;27.23;41.09;100723.81;5037018;28;20410;-60
2022/05/30 09:45:52;;;;;;;6.78;3.95;;;;;;;27.01;41.00;100729.66;5036222;28;20417;-59
2022/05/30 09:48:20;;;;;;;3.70;3.25;;;;;;;27.14;41.21;100733.66;5049653;28;20408;-59
2022/05/30 09:50:49;;;;;;;4.93;3.53;;;;;;;27.18;41.18;100737.44;5031306;28;20417;-59
2022/05/30 09:53:41;;;;;;;5.67;3.63;;;;;;;27.23;40.94;100733.91;5040663;28;20499;-59
2022/05/30 09:56:10;;;;;;;7.20;3.73;;;;;;;27.42;41.11;100737.63;5029614;28;20414;-60
2022/05/30 09:58:47;;;;;;;4.75;3.40;;;;;;;27.59;40.48;100739.94;5029648;28;20410;-60
2022/05/30 10:01:24;;;;;;;5.17;3.50;;;;;;;27.68;40.59;100731.97;5049449;28;20436;-59
2022/05/30 10:03:54;;;;;;;6.95;3.72;;;;;;;27.69;39.90;100732.78;5035949;28;20421;-59
2022/05/30 10:06:25;;;;;;;6.45;3.58;;;;;;;27.64;39.33;100733.63;5036724;28;20424;-59
2022/05/30 10:09:09;;;;;;;8.63;3.75;;;;;;;27.64;39.54;100733.63;5036511;28;20418;-59
2022/05/30 10:11:37;;;;;;;4.82;2.78;;;;;;;27.76;38.31;100733.28;5037140;28;20786;-59
2022/05/30 10:14:19;;;;;;;5.13;2.80;;;;;;;27.71;38.28;100739.56;5035155;28;20804;-60
2022/05/30 10:16:46;;;;;;;6.00;3.38;;;;;;;27.78;39.04;100733.78;5041077;28;20432;-59
2022/05/30 10:19:26;;;;;;;4.00;3.17;;;;;;;27.84;38.91;100736.19;5029936;28;20422;-59
2022/05/30 10:28:20;;;;;;;5.80;3.00;;;;;;;27.58;39.08;100729.31;5040051;28;20415;-59
2022/05/30 10:31:02;;;;;;;5.13;2.90;;;;;;;27.57;39.26;100725.00;5029451;28;20410;-59
2022/05/30 10:34:19;;;;;;;5.25;3.10;;;;;;;27.52;39.04;100728.56;5029258;28;20410;-59
2022/05/30 10:36:57;;;;;;;5.10;3.80;;;;;;;27.50;38.80;100717.13;5044472;28;20408;-59
2022/05/30 10:40:01;;;;;;;7.68;5.88;;;;;;;27.73;39.53;100721.03;5040347;28;20418;-59
2022/05/30 10:42:36;;;;;;;3.80;3.00;;;;;;;27.80;38.64;100718.81;5029372;28;20519;-60
2022/05/30 10:45:12;;;;;;;5.03;3.30;;;;;;;27.70;38.74;100718.09;5042394;28;20420;-59
2022/05/30 10:47:45;;;;;;;4.95;3.55;;;;;;;27.71;38.60;100719.69;5036100;28;20416;-59
2022/05/30 10:50:18;;;;;;;7.38;3.47;;;;;;;27.72;39.00;100721.34;5035302;28;20423;-59
2022/05/30 10:52:52;;;;;;;5.20;3.35;;;;;;;27.75;39.28;100716.13;5035725;28;20408;-59
2022/05/30 10:55:25;;;;;;;4.85;3.25;;;;;;;27.78;39.15;100718.25;5048988;28;20419;-59
2022/05/30 10:57:59;;;;;;;6.07;3.30;;;;;;;27.82;39.32;100711.16;5049297;28;20420;-59
2022/05/30 11:00:34;;;;;;;4.53;3.20;;;;;;;27.80;38.82;100707.91;5049352;28;20454;-59
2022/05/30 11:03:11;;;;;;;6.47;3.00;;;;;;;27.88;38.38;100705.66;5052833;28;20432;-59
2022/05/30 11:05:44;;;;;;;4.50;3.20;;;;;;;27.71;38.29;100700.63;5038527;28;20406;-59
2022/05/30 11:08:17;;;;;;;4.03;2.85;;;;;;;27.31;38.42;100705.28;5033274;28;20497;-60
2022/05/30 11:10:51;;;;;;;5.30;3.00;;;;;;;27.26;38.38;100697.94;5046609;28;20825;-59
2022/05/30 11:13:35;;;;;;;3.67;3.22;;;;;;;26.99;39.32;100696.47;5032797;28;20410;-59
2022/05/30 11:16:09;;;;;;;4.38;3.40;;;;;;;27.38;39.22;100697.63;5032677;28;20414;-59
2022/05/30 11:18:42;;;;;;;4.90;3.20;;;;;;;27.52;39.10;100700.53;5033093;28;20420;-59
2022/05/30 11:21:18;;;;;;;4.30;3.17;;;;;;;27.64;38.23;100700.94;5046453;28;20505;-59
2022/05/30 11:23:45;;;;;;;5.70;3.10;;;;;;;27.50;38.42;100695.34;5033191;28;20473;-59
2022/05/30 11:26:44;;;;;;;4.25;3.20;;;;;;;27.42;39.56;100699.50;5036180;28;20425;-59
2022/05/30 11:29:34;;;;;;;4.47;3.22;;;;;;;27.12;39.35;100695.03;4995798;28;20425;-59
2022/05/30 11:32:10;;;;;;;5.90;4.00;;;;;;;26.35;41.72;100702.69;5050666;28;20422;-59
2022/05/30 11:34:58;;;;;;;4.22;3.75;;;;;;;26.43;42.47;100704.81;5041020;28;20406;-59
2022/05/30 11:37:58;;;;;;;5.68;3.67;;;;;;;26.11;43.01;100711.44;5032291;28;20931;-59
2022/05/30 11:40:34;;;;;;;4.47;3.88;;;;;;;26.03;43.61;100706.56;5035360;28;20420;-59
2022/05/30 11:43:21;;;;;;;4.53;3.95;;;;;;;25.81;43.75;100704.91;5041594;28;20455;-59
2022/05/30 11:45:55;;;;;;;3.85;3.40;;;;;;;25.70;43.15;100709.53;5037230;28;20419;-59
2022/05/30 11:48:33;;;;;;;3.85;3.45;;;;;;;25.58;42.76;100698.13;5052105;28;20790;-59
2022/05/30 11:51:14;;;;;;;4.38;3.35;;;;;;;25.72;43.09;100704.63;5038320;28;20404;-59
2022/05/30 11:54:09;;;;;;;7.72;3.70;;;;;;;25.80;43.36;100699.75;5053148;28;20425;-59
2022/05/30 11:56:47;;;;;;;4.93;3.40;;;;;;;25.75;42.94;100700.59;5053299;28;20408;-60
2022/05/30 11:59:41;;;;;;;6.05;3.92;;;;;;;25.81;42.68;100698.66;5049253;28;20411;-60
2022/05/30 12:02:16;;;;;;;4.45;3.72;;;;;;;25.86;42.98;100695.97;5048358;28;20503;-60
2022/05/30 12:05:13;;;;;;;5.18;3.33;;;;;;;25.78;42.86;100700.00;5038124;28;20408;-60